createdAt,value
2023-08-05T00:00:03.919Z,14.90
2023-08-05T00:02:31.812Z,14.90
2023-08-05T00:04:59.603Z,14.90
2023-08-05T00:07:27.428Z,14.80
2023-08-05T00:09:56.559Z,14.80
2023-08-05T00:12:25.766Z,14.80
2023-08-05T00:14:53.612Z,14.90
2023-08-05T00:17:21.389Z,14.90
2023-08-05T00:19:49.248Z,15.00
2023-08-05T00:22:17.011Z,15.00
2023-08-05T00:24:44.759Z,15.10
2023-08-05T00:27:14.097Z,15.20
2023-08-05T00:29:42.026Z,15.20
2023-08-05T00:32:09.836Z,15.30
2023-08-05T00:34:37.682Z,15.30
2023-08-05T00:37:06.051Z,15.30
2023-08-05T00:39:33.881Z,15.40
2023-08-05T00:42:01.726Z,15.40
2023-08-05T00:44:30.837Z,15.50
2023-08-05T00:46:59.845Z,15.50
2023-08-05T00:49:27.855Z,15.50
2023-08-05T00:51:56.020Z,15.60
2023-08-05T00:54:23.985Z,15.60
2023-08-05T00:56:52.525Z,15.60
2023-08-05T00:59:21.195Z,15.60
2023-08-05T01:01:50.693Z,15.70
2023-08-05T01:04:18.519Z,15.70
2023-08-05T01:06:47.763Z,15.80
2023-08-05T01:09:16.103Z,15.80
2023-08-05T01:11:43.993Z,15.90
2023-08-05T01:14:11.947Z,15.90
2023-08-05T01:16:40.141Z,15.90
2023-08-05T01:19:14.962Z,15.90
2023-08-05T01:21:50.114Z,15.90
2023-08-05T01:24:25.266Z,15.90
2023-08-05T01:26:56.688Z,15.90
2023-08-05T01:29:25.145Z,15.90
2023-08-05T01:31:55.780Z,15.90
2023-08-05T01:34:24.265Z,15.90
2023-08-05T01:36:52.202Z,15.90
2023-08-05T01:39:20.201Z,15.90
2023-08-05T01:41:48.006Z,15.90
2023-08-05T01:44:17.342Z,15.90
2023-08-05T01:46:45.181Z,16.00
2023-08-05T01:49:13.132Z,15.90
2023-08-05T01:51:40.858Z,16.00
2023-08-05T01:54:08.615Z,16.00
2023-08-05T01:56:36.343Z,16.00
2023-08-05T01:59:04.150Z,16.00
2023-08-05T02:01:51.242Z,16.00
2023-08-05T02:04:19.042Z,16.00
2023-08-05T02:06:46.881Z,16.00
2023-08-05T02:09:14.692Z,16.00
2023-08-05T02:11:42.470Z,16.00
2023-08-05T02:14:10.230Z,15.90
2023-08-05T02:16:38.347Z,15.90
2023-08-05T02:19:09.792Z,15.90
2023-08-05T02:21:39.237Z,15.90
2023-08-05T02:24:10.703Z,15.80
2023-08-05T02:26:38.493Z,15.70
2023-08-05T02:29:06.359Z,15.70
2023-08-05T02:31:34.124Z,15.60
2023-08-05T02:34:01.920Z,15.60
2023-08-05T02:36:31.066Z,15.50
2023-08-05T02:38:58.815Z,15.50
2023-08-05T02:41:26.991Z,15.50
2023-08-05T02:43:54.873Z,15.50
2023-08-05T02:46:22.660Z,15.50
2023-08-05T02:48:50.455Z,15.40
2023-08-05T02:51:18.357Z,15.40
2023-08-05T02:53:47.585Z,15.40
2023-08-05T02:56:15.375Z,15.40
2023-08-05T02:58:43.140Z,15.40
2023-08-05T03:01:11.544Z,15.40
2023-08-05T03:03:39.410Z,15.40
2023-08-05T03:06:07.270Z,15.40
2023-08-05T03:08:35.138Z,15.40
2023-08-05T03:11:04.771Z,15.40
2023-08-05T03:13:32.707Z,15.40
2023-08-05T03:16:10.012Z,15.40
2023-08-05T03:18:37.780Z,15.40
2023-08-05T03:21:06.296Z,15.40
2023-08-05T03:23:34.265Z,15.50
2023-08-05T03:26:02.332Z,15.50
2023-08-05T03:28:31.434Z,15.50
2023-08-05T03:30:59.799Z,15.50
2023-08-05T03:33:27.634Z,15.60
2023-08-05T03:35:56.288Z,15.60
2023-08-05T03:38:24.164Z,15.60
2023-08-05T03:40:52.162Z,15.50
2023-08-05T03:43:20.009Z,15.50
2023-08-05T03:45:52.980Z,15.50
2023-08-05T03:48:20.785Z,15.50
2023-08-05T03:50:48.698Z,15.40
2023-08-05T03:53:16.647Z,15.40
2023-08-05T03:55:44.442Z,15.40
2023-08-05T03:58:12.534Z,15.40
2023-08-05T04:00:43.012Z,15.50
2023-08-05T04:03:12.196Z,15.50
2023-08-05T04:05:41.410Z,15.50
2023-08-05T04:08:09.269Z,15.50
2023-08-05T04:10:39.540Z,15.50
2023-08-05T04:13:10.107Z,15.50
2023-08-05T04:15:38.254Z,15.50
2023-08-05T04:18:07.194Z,15.50
2023-08-05T04:20:37.613Z,15.60
2023-08-05T04:23:07.196Z,15.60
2023-08-05T04:25:35.465Z,15.60
2023-08-05T04:28:03.331Z,15.70
2023-08-05T04:30:31.073Z,15.70
2023-08-05T04:32:58.844Z,15.70
2023-08-05T04:35:26.712Z,15.80
2023-08-05T04:37:56.232Z,15.80
2023-08-05T04:40:24.067Z,15.90
2023-08-05T04:42:51.801Z,15.90
2023-08-05T04:45:19.540Z,15.90
2023-08-05T04:47:47.391Z,15.90
2023-08-05T04:50:15.175Z,15.90
2023-08-05T04:52:42.955Z,16.00
2023-08-05T04:55:12.914Z,16.00
2023-08-05T04:57:40.651Z,16.10
2023-08-05T05:00:09.648Z,16.10
2023-08-05T05:02:38.798Z,16.10
2023-08-05T05:05:07.539Z,16.20
2023-08-05T05:07:35.310Z,16.20
2023-08-05T05:10:03.199Z,16.20
2023-08-05T05:12:32.391Z,16.30
2023-08-05T05:15:00.306Z,16.20
2023-08-05T05:17:34.227Z,16.20
2023-08-05T05:20:02.208Z,16.10
2023-08-05T05:22:29.939Z,16.00
2023-08-05T05:24:57.859Z,16.00
2023-08-05T05:27:25.657Z,16.00
2023-08-05T05:29:54.880Z,16.00
2023-08-05T05:32:22.630Z,16.00
2023-08-05T05:34:50.399Z,16.00
2023-08-05T05:37:18.252Z,16.00
2023-08-05T05:39:46.342Z,16.00
2023-08-05T05:42:14.100Z,16.10
2023-08-05T05:44:42.073Z,16.00
2023-08-05T05:47:12.866Z,16.10
2023-08-05T05:49:40.934Z,16.10
2023-08-05T05:52:09.003Z,16.10
2023-08-05T05:54:37.105Z,16.20
2023-08-05T05:57:05.277Z,16.20
2023-08-05T05:59:33.050Z,16.30
2023-08-05T06:02:00.805Z,16.30
2023-08-05T06:04:31.412Z,16.40
2023-08-05T06:07:02.132Z,16.40
2023-08-05T06:09:31.560Z,16.50
2023-08-05T06:11:59.941Z,16.60
2023-08-05T06:14:29.806Z,16.70
2023-08-05T06:16:57.773Z,16.90
2023-08-05T06:19:25.614Z,17.10
2023-08-05T06:21:55.000Z,17.40
2023-08-05T06:24:22.894Z,17.50
2023-08-05T06:26:50.957Z,17.70
2023-08-05T06:29:18.970Z,17.80
2023-08-05T06:31:46.718Z,17.90
2023-08-05T06:34:14.801Z,18.10
2023-08-05T06:36:42.539Z,18.20
2023-08-05T06:39:12.022Z,18.30
2023-08-05T06:41:39.848Z,18.30
2023-08-05T06:44:07.619Z,18.40
2023-08-05T06:46:35.783Z,18.40
2023-08-05T06:49:03.616Z,18.60
2023-08-05T06:51:33.165Z,18.60
2023-08-05T06:54:01.147Z,18.70
2023-08-05T06:56:30.266Z,18.70
2023-08-05T06:58:58.038Z,18.80
2023-08-05T07:01:26.842Z,18.80
2023-08-05T07:03:54.920Z,18.80
2023-08-05T07:06:25.125Z,18.80
2023-08-05T07:08:52.887Z,18.80
2023-08-05T07:11:20.662Z,18.90
2023-08-05T07:13:51.498Z,19.00
2023-08-05T07:16:19.601Z,19.00
2023-08-05T07:18:47.373Z,19.10
2023-08-05T07:21:16.370Z,19.10
2023-08-05T07:23:44.162Z,19.20
2023-08-05T07:26:11.980Z,19.20
2023-08-05T07:28:39.729Z,19.20
2023-08-05T07:31:11.531Z,19.20
2023-08-05T07:33:39.745Z,19.10
2023-08-05T07:36:11.291Z,19.00
2023-08-05T07:38:44.269Z,18.90
2023-08-05T07:41:13.602Z,18.90
2023-08-05T07:43:46.445Z,18.90
2023-08-05T07:46:17.544Z,19.00
2023-08-05T07:48:48.277Z,19.00
2023-08-05T07:51:16.119Z,19.00
2023-08-05T07:53:43.972Z,19.00
2023-08-05T07:56:15.501Z,19.00
2023-08-05T07:58:46.849Z,19.00
2023-08-05T08:01:20.705Z,19.10
2023-08-05T08:03:50.347Z,19.10
2023-08-05T08:06:22.221Z,19.10
2023-08-05T08:08:50.775Z,19.10
2023-08-05T08:11:18.926Z,19.20
2023-08-05T08:13:50.750Z,19.20
2023-08-05T08:16:21.566Z,19.20
2023-08-05T08:18:52.169Z,19.30
2023-08-05T08:21:20.767Z,19.30
2023-08-05T08:23:51.267Z,19.40
2023-08-05T08:26:19.367Z,19.40
2023-08-05T08:28:47.514Z,19.50
2023-08-05T08:31:15.984Z,19.50
2023-08-05T08:33:48.633Z,19.60
2023-08-05T08:36:19.703Z,19.60
2023-08-05T08:38:50.132Z,19.60
2023-08-05T08:41:18.342Z,19.60
2023-08-05T08:44:19.829Z,19.60
2023-08-05T08:46:50.064Z,19.70
2023-08-05T08:49:21.764Z,19.70
2023-08-05T08:51:51.027Z,19.70
2023-08-05T08:54:20.504Z,19.80
2023-08-05T08:56:48.973Z,19.90
2023-08-05T08:59:16.978Z,20.00
2023-08-05T09:01:47.478Z,20.10
2023-08-05T09:04:39.694Z,20.10
2023-08-05T09:07:11.735Z,20.20
2023-08-05T09:09:39.550Z,20.30
2023-08-05T09:12:08.153Z,20.30
2023-08-05T09:14:38.895Z,20.40
2023-08-05T09:17:12.180Z,20.50
2023-08-05T09:19:43.468Z,20.50
2023-08-05T09:22:14.026Z,20.50
2023-08-05T09:24:45.360Z,20.60
2023-08-05T09:27:13.133Z,20.60
2023-08-05T09:29:40.950Z,20.60
2023-08-05T09:32:09.663Z,20.60
2023-08-05T09:34:39.401Z,20.70
2023-08-05T09:37:09.161Z,20.70
2023-08-05T09:39:46.084Z,20.80
2023-08-05T09:42:21.887Z,20.80
2023-08-05T09:44:50.314Z,20.80
2023-08-05T09:47:24.339Z,20.90
2023-08-05T09:49:54.519Z,21.00
2023-08-05T09:52:25.422Z,21.10
2023-08-05T09:54:58.987Z,21.10
2023-08-05T09:57:29.046Z,21.20
2023-08-05T10:00:00.069Z,21.20
2023-08-05T10:02:30.402Z,21.20
2023-08-05T10:04:58.348Z,21.10
2023-08-05T10:07:28.691Z,21.10
2023-08-05T10:09:58.279Z,21.20
2023-08-05T10:12:31.019Z,21.10
2023-08-05T10:15:01.464Z,21.10
2023-08-05T10:17:31.913Z,21.10
2023-08-05T10:20:02.709Z,21.30
2023-08-05T10:23:31.646Z,21.60
2023-08-05T10:26:05.001Z,21.90
2023-08-05T10:28:42.898Z,22.20
2023-08-05T10:31:30.468Z,22.30
2023-08-05T10:34:28.680Z,22.50
2023-08-05T10:36:59.401Z,22.70
2023-08-05T10:39:44.999Z,22.80
2023-08-05T10:42:38.837Z,22.90
2023-08-05T10:45:08.313Z,23.00
2023-08-05T10:47:37.685Z,23.10
2023-08-05T10:50:06.355Z,23.00
2023-08-05T10:52:50.289Z,22.70
2023-08-05T10:55:29.809Z,22.50
2023-08-05T10:58:02.215Z,22.30
2023-08-05T11:00:50.181Z,22.10
2023-08-05T11:03:41.729Z,22.10
2023-08-05T11:06:43.272Z,22.20
2023-08-05T11:09:13.831Z,22.30
2023-08-05T11:11:52.902Z,22.40
2023-08-05T11:14:29.475Z,22.40
2023-08-05T11:17:07.283Z,22.40
2023-08-05T11:19:55.719Z,22.50
2023-08-05T11:22:33.657Z,22.70
2023-08-05T11:25:03.171Z,22.80
2023-08-05T11:27:40.407Z,23.00
2023-08-05T11:30:19.475Z,23.00
2023-08-05T11:32:56.952Z,22.90
2023-08-05T11:35:30.592Z,22.80
2023-08-05T11:38:00.121Z,22.90
2023-08-05T11:40:32.194Z,22.90
2023-08-05T11:43:01.287Z,23.10
2023-08-05T11:45:32.980Z,23.10
2023-08-05T11:48:01.291Z,23.10
2023-08-05T11:50:42.864Z,23.20
2023-08-05T11:53:10.948Z,23.20
2023-08-05T11:55:41.997Z,23.10
2023-08-05T11:58:14.650Z,23.20
2023-08-05T12:00:48.871Z,23.40
2023-08-05T12:03:18.069Z,23.50
2023-08-05T12:05:47.539Z,23.50
2023-08-05T12:08:44.023Z,23.40
2023-08-05T12:11:15.845Z,23.30
2023-08-05T12:13:47.398Z,23.20
2023-08-05T12:16:18.572Z,23.20
2023-08-05T12:18:47.674Z,23.20
2023-08-05T12:21:16.615Z,23.10
2023-08-05T12:23:56.387Z,23.10
2023-08-05T12:26:28.101Z,23.00
2023-08-05T12:29:05.697Z,22.80
2023-08-05T12:31:36.149Z,22.80
2023-08-05T12:34:04.642Z,22.80
2023-08-05T12:36:32.661Z,22.90
2023-08-05T12:38:59.857Z,23.00
2023-08-05T12:41:28.099Z,23.00
2023-08-05T12:44:00.510Z,23.10
2023-08-05T12:46:28.520Z,23.10
2023-08-05T12:48:58.000Z,23.20
2023-08-05T12:51:25.976Z,23.10
2023-08-05T12:54:03.262Z,23.10
2023-08-05T12:56:31.348Z,23.00
2023-08-05T12:58:59.268Z,22.90
2023-08-05T13:01:27.212Z,22.90
2023-08-05T13:03:55.409Z,23.10
2023-08-05T13:06:27.564Z,23.20
2023-08-05T13:08:55.498Z,23.10
2023-08-05T13:11:23.500Z,23.10
2023-08-05T13:13:51.456Z,23.20
2023-08-05T13:16:22.415Z,23.20
2023-08-05T13:18:50.430Z,23.40
2023-08-05T13:21:21.147Z,23.50
2023-08-05T13:23:53.340Z,23.70
2023-08-05T13:26:21.401Z,23.70
2023-08-05T13:28:49.354Z,23.60
2023-08-05T13:31:17.414Z,23.40
2023-08-05T13:33:45.383Z,23.40
2023-08-05T13:36:16.478Z,23.40
2023-08-05T13:38:44.579Z,23.40
2023-08-05T13:41:13.916Z,23.40
2023-08-05T13:43:45.640Z,23.30
2023-08-05T13:46:13.777Z,23.20
2023-08-05T13:48:41.844Z,23.10
2023-08-05T13:51:11.324Z,23.10
2023-08-05T13:53:42.679Z,23.00
2023-08-05T13:56:10.821Z,22.90
2023-08-05T13:58:40.050Z,22.80
2023-08-05T14:01:15.569Z,22.80
2023-08-05T14:03:43.626Z,22.80
2023-08-05T14:06:13.204Z,23.00
2023-08-05T14:08:41.273Z,23.10
2023-08-05T14:11:10.632Z,23.10
2023-08-05T14:13:39.915Z,23.10
2023-08-05T14:16:08.256Z,23.00
2023-08-05T14:18:36.424Z,23.00
2023-08-05T14:21:05.314Z,23.00
2023-08-05T14:23:33.419Z,23.10
2023-08-05T14:26:01.804Z,23.20
2023-08-05T14:28:29.996Z,23.30
2023-08-05T14:31:00.678Z,23.40
2023-08-05T14:33:28.703Z,23.50
2023-08-05T14:35:56.874Z,23.50
2023-08-05T14:38:24.840Z,23.60
2023-08-05T14:40:55.244Z,23.60
2023-08-05T14:43:23.365Z,23.60
2023-08-05T14:45:51.382Z,23.70
2023-08-05T14:48:20.628Z,23.60
2023-08-05T14:50:48.650Z,23.60
2023-08-05T14:53:16.598Z,23.50
2023-08-05T14:55:44.576Z,23.60
2023-08-05T14:58:17.302Z,23.70
2023-08-05T15:00:45.481Z,23.70
2023-08-05T15:03:16.670Z,23.60
2023-08-05T15:05:46.024Z,23.50
2023-08-05T15:08:14.049Z,23.50
2023-08-05T15:10:42.143Z,23.40
2023-08-05T15:13:10.126Z,23.30
2023-08-05T15:15:40.203Z,23.30
2023-08-05T15:18:08.053Z,23.40
2023-08-05T15:20:37.752Z,23.40
2023-08-05T15:23:10.468Z,23.50
2023-08-05T15:25:51.538Z,23.40
2023-08-05T15:28:19.816Z,23.40
2023-08-05T15:30:48.253Z,23.50
2023-08-05T15:33:18.337Z,23.50
2023-08-05T15:35:54.127Z,23.50
2023-08-05T15:38:25.662Z,23.50
2023-08-05T15:41:00.227Z,23.40
2023-08-05T15:43:28.309Z,23.40
2023-08-05T15:45:56.891Z,23.20
2023-08-05T15:48:25.099Z,23.20
2023-08-05T15:50:53.086Z,23.10
2023-08-05T15:53:21.164Z,23.10
2023-08-05T15:55:59.315Z,23.00
2023-08-05T15:58:31.849Z,22.90
2023-08-05T16:01:04.293Z,22.90
2023-08-05T16:03:32.816Z,22.90
2023-08-05T16:06:08.261Z,22.90
2023-08-05T16:08:37.457Z,22.80
2023-08-05T16:11:14.905Z,22.80
2023-08-05T16:13:43.648Z,22.80
2023-08-05T16:16:13.341Z,22.70
2023-08-05T16:18:41.794Z,22.70
2023-08-05T16:21:17.289Z,22.70
2023-08-05T16:23:48.656Z,22.60
2023-08-05T16:26:21.172Z,22.60
2023-08-05T16:28:52.644Z,22.60
2023-08-05T16:31:25.034Z,22.60
2023-08-05T16:33:53.476Z,22.60
2023-08-05T16:36:24.247Z,22.60
2023-08-05T16:38:52.230Z,22.50
2023-08-05T16:41:22.776Z,22.50
2023-08-05T16:43:54.133Z,22.50
2023-08-05T16:46:31.433Z,22.40
2023-08-05T16:49:08.407Z,22.50
2023-08-05T16:51:44.754Z,22.50
2023-08-05T16:54:20.608Z,22.50
2023-08-05T16:56:53.559Z,22.60
2023-08-05T16:59:22.403Z,22.60
2023-08-05T17:01:51.617Z,22.50
2023-08-05T17:04:22.553Z,22.40
2023-08-05T17:10:42.486Z,22.30
2023-08-05T17:13:12.407Z,22.20
2023-08-05T17:15:44.367Z,22.20
2023-08-05T17:18:15.232Z,22.20
2023-08-05T17:20:46.631Z,22.10
2023-08-05T17:23:14.675Z,22.10
2023-08-05T17:25:44.562Z,22.10
2023-08-05T17:28:14.418Z,22.00
2023-08-05T17:30:44.512Z,22.00
2023-08-05T17:33:28.782Z,21.90
2023-08-05T17:35:56.907Z,21.90
2023-08-05T17:38:30.703Z,21.70
2023-08-05T17:41:03.311Z,21.70
2023-08-05T17:43:33.057Z,21.60
2023-08-05T17:46:01.534Z,21.40
2023-08-05T17:48:32.993Z,21.40
2023-08-05T17:51:03.998Z,21.20
2023-08-05T17:53:34.177Z,21.10
2023-08-05T17:56:04.004Z,21.00
2023-08-05T17:58:33.596Z,21.00
2023-08-05T18:01:05.270Z,20.90
2023-08-05T18:03:38.534Z,20.80
2023-08-05T18:06:21.319Z,20.70
2023-08-05T18:08:50.894Z,20.70
2023-08-05T18:11:20.408Z,20.60
2023-08-05T18:13:51.157Z,20.60
2023-08-05T18:16:32.385Z,20.50
2023-08-05T18:19:05.013Z,20.50
2023-08-05T18:21:37.790Z,20.50
2023-08-05T18:24:10.451Z,20.40
2023-08-05T18:26:38.628Z,20.40
2023-08-05T18:29:08.298Z,20.40
2023-08-05T18:31:37.097Z,20.40
2023-08-05T18:34:22.766Z,20.30
2023-08-05T18:37:04.105Z,20.30
2023-08-05T18:40:24.766Z,20.30
2023-08-05T18:44:32.002Z,20.30
2023-08-05T18:46:08.021Z,20.20
2023-08-05T18:49:03.719Z,20.20
2023-08-05T18:54:46.808Z,20.10
2023-08-05T18:57:23.580Z,20.10
2023-08-05T18:59:54.654Z,20.00
2023-08-05T19:02:25.131Z,20.00
2023-08-05T19:04:53.672Z,20.00
2023-08-05T19:07:29.365Z,20.00
2023-08-05T19:09:58.365Z,20.00
2023-08-05T19:12:26.725Z,20.00
2023-08-05T19:15:04.306Z,19.90
2023-08-05T19:17:48.373Z,19.90
2023-08-05T19:20:22.462Z,19.90
2023-08-05T19:22:51.385Z,19.90
2023-08-05T19:25:25.256Z,19.90
2023-08-05T19:27:55.452Z,19.90
2023-08-05T19:30:24.166Z,19.90
2023-08-05T19:32:56.516Z,19.90
2023-08-05T19:39:13.549Z,19.80
2023-08-05T19:41:50.830Z,19.80
2023-08-05T19:44:19.130Z,19.80
2023-08-05T19:46:47.704Z,19.80
2023-08-05T19:49:16.956Z,19.80
2023-08-05T19:51:55.733Z,19.70
2023-08-05T19:54:23.799Z,19.70
2023-08-05T19:57:01.124Z,19.70
2023-08-05T19:59:32.908Z,19.80
2023-08-05T20:02:00.989Z,19.70
2023-08-05T20:04:35.592Z,19.70
2023-08-05T20:07:10.206Z,19.70
2023-08-05T20:09:38.648Z,19.70
2023-08-05T20:12:09.407Z,19.70
2023-08-05T20:14:38.412Z,19.70
2023-08-05T20:17:13.663Z,19.60
2023-08-05T20:19:45.301Z,19.70
2023-08-05T20:22:14.125Z,19.60
2023-08-05T20:24:44.013Z,19.60
2023-08-05T20:27:15.907Z,19.60
2023-08-05T20:29:45.526Z,19.50
2023-08-05T20:32:17.849Z,19.50
2023-08-05T20:34:50.068Z,19.50
2023-08-05T20:37:18.242Z,19.50
2023-08-05T20:39:46.625Z,19.50
2023-08-05T20:42:14.604Z,19.50
2023-08-05T20:44:44.772Z,19.40
2023-08-05T20:47:13.450Z,19.40
2023-08-05T20:49:41.916Z,19.40
2023-08-05T20:52:11.760Z,19.40
2023-08-05T20:54:39.927Z,19.40
2023-08-05T20:57:08.764Z,19.40
2023-08-05T20:59:38.499Z,19.40
2023-08-05T21:02:07.679Z,19.40
2023-08-05T21:04:36.832Z,19.40
2023-08-05T21:07:04.887Z,19.40
2023-08-05T21:09:34.200Z,19.30
2023-08-05T21:12:02.025Z,19.30
2023-08-05T21:14:30.232Z,19.30
2023-08-05T21:16:58.714Z,19.30
2023-08-05T21:19:26.621Z,19.30
2023-08-05T21:21:55.176Z,19.30
2023-08-05T21:24:23.345Z,19.30
2023-08-05T21:26:54.373Z,19.20
2023-08-05T21:29:22.211Z,19.20
2023-08-05T21:31:50.923Z,19.10
2023-08-05T21:34:20.133Z,19.00
2023-08-05T21:36:50.389Z,19.00
2023-08-05T21:39:18.726Z,18.90
2023-08-05T21:41:46.621Z,18.90
2023-08-05T21:44:16.514Z,18.80
2023-08-05T21:46:44.407Z,18.70
2023-08-05T21:49:12.494Z,18.70
2023-08-05T21:51:41.211Z,18.60
2023-08-05T21:54:09.565Z,18.60
2023-08-05T21:56:39.432Z,18.50
2023-08-05T21:59:07.466Z,18.40
2023-08-05T22:01:40.154Z,18.40
2023-08-05T22:04:08.042Z,18.30
2023-08-05T22:06:37.137Z,18.20
2023-08-05T22:09:05.609Z,18.20
2023-08-05T22:11:33.576Z,18.20
2023-08-05T22:14:01.490Z,18.20
2023-08-05T22:16:29.557Z,18.10
2023-08-05T22:18:58.986Z,18.20
2023-08-05T22:21:26.914Z,18.10
2023-08-05T22:23:54.888Z,18.00
2023-08-05T22:26:22.763Z,18.00
2023-08-05T22:28:50.667Z,18.00
2023-08-05T22:31:18.585Z,17.90
2023-08-05T22:33:46.413Z,17.90
2023-08-05T22:36:16.599Z,17.90
2023-08-05T22:38:45.724Z,17.80
2023-08-05T22:41:13.560Z,17.80
2023-08-05T22:43:41.386Z,17.80
2023-08-05T22:46:09.335Z,17.80
2023-08-05T22:48:39.173Z,17.70
2023-08-05T22:51:08.721Z,17.70
2023-08-05T22:53:38.783Z,17.70
2023-08-05T22:56:06.771Z,17.70
2023-08-05T22:58:34.584Z,17.70
2023-08-05T23:01:03.116Z,17.70
2023-08-05T23:03:31.497Z,17.70
2023-08-05T23:05:59.569Z,17.70
2023-08-05T23:08:27.536Z,17.70
2023-08-05T23:10:56.864Z,17.70
2023-08-05T23:13:24.935Z,17.60
2023-08-05T23:15:52.961Z,17.60
2023-08-05T23:18:20.878Z,17.60
2023-08-05T23:20:48.856Z,17.60
2023-08-05T23:23:16.741Z,17.60
2023-08-05T23:25:45.739Z,17.60
2023-08-05T23:28:14.984Z,17.60
2023-08-05T23:30:46.946Z,17.50
2023-08-05T23:33:14.970Z,17.40
2023-08-05T23:35:42.972Z,17.40
2023-08-05T23:38:13.621Z,17.30
2023-08-05T23:40:41.828Z,17.30
2023-08-05T23:43:09.862Z,17.20
2023-08-05T23:45:40.938Z,17.20
2023-08-05T23:48:08.952Z,17.20
2023-08-05T23:50:36.886Z,17.20
2023-08-05T23:53:04.989Z,17.10
2023-08-05T23:55:32.953Z,17.10
2023-08-05T23:58:01.132Z,17.10
